Página principal
METAR-TAF:

METAR-TAF

Aeroportos :

Aeroporto Internacional Harbin Taiping

Harbin, China

latitude: 45-45N, longitude: 126-46E, altura: 143 m

Observação actual do tempo

O boletim foi feito há 49 minutos, às 15:00 UTC
Vento 4 kt de oes-noroeste, variando entre oes-sudoeste e noroeste
Temperatura 9°C
Humidade 87%
Pressão 1014 hPa
Visibilidade 10 km ou mais
sem nuvens abaixo de 1500 metros e sem cumulonimbus

METAR: ZYHB 231500Z 29002MPS 240V310 CAVOK 09/07 Q1014 NOSIG

Hora: 23:49 (15:49 UTC)

Previsão

O boletim foi feito há 6 horas e 42 minutos, às 09:07 UTC
Previsão válida de 23 às 12 UTC a 24 às 12 UTC
Vento 6 kt de oeste
Visibilidade: 6000 m
Nuvens dispersasa uma altura de 3300 ft
Temporariamente
de 23 às 18 UTC a 23 às 22 UTC
Visibilidade: 1500 m
neblina

TAF: ZYHB 230907Z 2312/2412 28003MPS 6000 SCT033 TX15/2406Z TN05/2321Z TEMPO 2318/2322 1500 BR

Observações e previsões do tempo de mais de 4000 aeroportos (mensagens METAR e TAF).

As estações disponíveis são os pontos amarelos e vermelhos sobre o mapa.

Mova o rato sobre o mapa para ver o nome da estação.

Depois clique no ponto para visualizar as observações e previsões meteorológicas.

Para alterar o mapa : clique nos botões verdes com uma cruz preta para aumentar o zoom; no botão verde com uma pitada de zoom; ou nas setas verdes para mapas adjacentes.


METAR-TAF: